createdAt,value
2018-12-19T00:00:43.847Z,913.40
2018-12-19T00:01:43.821Z,913.40
2018-12-19T00:02:43.782Z,913.40
2018-12-19T00:03:43.750Z,913.40
2018-12-19T00:04:43.739Z,913.41
2018-12-19T00:05:43.670Z,913.40
2018-12-19T00:06:43.681Z,913.38
2018-12-19T00:07:43.698Z,913.42
2018-12-19T00:08:43.797Z,913.41
2018-12-19T00:09:43.551Z,913.40
2018-12-19T00:10:43.505Z,913.48
2018-12-19T00:11:43.508Z,913.45
2018-12-19T00:12:43.458Z,913.47
2018-12-19T00:13:43.429Z,913.49
2018-12-19T00:14:43.618Z,913.51
2018-12-19T00:15:43.398Z,913.49
2018-12-19T00:16:43.336Z,913.47
2018-12-19T00:17:43.585Z,913.51
2018-12-19T00:18:43.280Z,913.46
2018-12-19T00:19:43.290Z,913.49
2018-12-19T00:20:43.232Z,913.49
2018-12-19T00:21:43.193Z,913.49
2018-12-19T00:22:43.160Z,913.50
2018-12-19T00:23:43.137Z,913.51
2018-12-19T00:24:43.090Z,913.50
2018-12-19T00:25:43.282Z,913.54
2018-12-19T00:26:43.049Z,913.51
2018-12-19T00:27:42.993Z,913.53
2018-12-19T00:28:42.963Z,913.54
2018-12-19T00:29:42.929Z,913.54
2018-12-19T00:30:43.110Z,913.57
2018-12-19T00:31:42.849Z,913.54
2018-12-19T00:32:42.826Z,913.56
2018-12-19T00:33:42.776Z,913.53
2018-12-19T00:34:42.760Z,913.53
2018-12-19T00:35:42.997Z,913.59
2018-12-19T00:36:42.722Z,913.59
2018-12-19T00:37:42.674Z,913.59
2018-12-19T00:38:42.660Z,913.63
2018-12-19T00:39:42.604Z,913.63
2018-12-19T00:40:42.565Z,913.67
2018-12-19T00:41:42.796Z,913.65
2018-12-19T00:42:42.521Z,913.63
2018-12-19T00:43:42.491Z,913.69
2018-12-19T00:44:42.445Z,913.73
2018-12-19T00:45:42.422Z,913.77
2018-12-19T00:46:42.588Z,913.74
2018-12-19T00:47:42.340Z,913.76
2018-12-19T00:48:42.362Z,913.79
2018-12-19T00:49:42.308Z,913.80
2018-12-19T00:50:42.253Z,913.80
2018-12-19T00:51:42.207Z,913.82
2018-12-19T00:52:42.199Z,913.83
2018-12-19T00:53:42.179Z,913.79
2018-12-19T00:54:42.337Z,913.80
2018-12-19T00:55:42.092Z,913.81
2018-12-19T00:56:42.077Z,913.86
2018-12-19T00:57:42.014Z,913.83
2018-12-19T00:58:42.005Z,913.85
2018-12-19T00:59:42.007Z,913.87
2018-12-19T01:00:41.938Z,913.84
2018-12-19T01:01:41.916Z,913.87
2018-12-19T01:02:41.874Z,913.88
2018-12-19T01:03:41.840Z,913.89
2018-12-19T01:04:47.967Z,913.92
2018-12-19T01:05:41.779Z,913.91
2018-12-19T01:06:41.739Z,913.90
2018-12-19T01:07:41.729Z,913.89
2018-12-19T01:08:41.838Z,913.90
2018-12-19T01:09:41.660Z,913.92
2018-12-19T01:10:41.619Z,913.90
2018-12-19T01:11:41.619Z,913.92
2018-12-19T01:13:41.768Z,913.93
2018-12-19T01:14:41.496Z,913.92
2018-12-19T01:15:41.473Z,913.95
2018-12-19T01:16:41.516Z,913.96
2018-12-19T01:17:41.415Z,913.94
2018-12-19T01:18:41.357Z,913.94
2018-12-19T01:19:41.333Z,913.96
2018-12-19T01:20:41.337Z,913.98
2018-12-19T01:21:41.328Z,913.97
2018-12-19T01:22:41.276Z,913.97
2018-12-19T01:23:41.467Z,913.98
2018-12-19T01:24:41.202Z,913.97
2018-12-19T01:25:41.161Z,913.99
2018-12-19T01:26:41.101Z,913.97
2018-12-19T01:27:41.063Z,914.00
2018-12-19T01:28:41.048Z,914.01
2018-12-19T01:29:41.049Z,914.00
2018-12-19T01:30:40.985Z,913.99
2018-12-19T01:31:40.950Z,914.00
2018-12-19T01:32:40.910Z,913.98
2018-12-19T01:33:40.896Z,913.99
2018-12-19T01:34:40.857Z,914.01
2018-12-19T01:35:40.847Z,914.02
2018-12-19T01:36:40.813Z,914.02
2018-12-19T01:37:40.749Z,914.00
2018-12-19T01:38:40.718Z,914.03
2018-12-19T01:40:40.656Z,914.07
2018-12-19T01:41:40.644Z,914.06
2018-12-19T01:42:40.581Z,914.06
2018-12-19T01:43:40.573Z,914.06
2018-12-19T01:44:40.519Z,914.10
2018-12-19T01:45:40.506Z,914.08
2018-12-19T01:46:40.493Z,914.06
2018-12-19T01:47:40.437Z,914.07
2018-12-19T01:48:40.411Z,914.10
2018-12-19T01:49:40.362Z,914.10
2018-12-19T01:50:40.322Z,914.11
2018-12-19T01:51:40.288Z,914.14
2018-12-19T01:52:40.268Z,914.11
2018-12-19T01:53:40.249Z,914.10
2018-12-19T01:54:40.211Z,914.11
2018-12-19T01:55:40.531Z,914.08
2018-12-19T01:56:40.120Z,914.08
2018-12-19T01:57:40.130Z,914.10
2018-12-19T01:58:40.100Z,914.08
2018-12-19T01:59:40.035Z,914.06
2018-12-19T02:00:40.009Z,914.06
2018-12-19T02:01:39.990Z,914.05
2018-12-19T02:02:40.052Z,914.08
2018-12-19T02:03:39.919Z,914.10
2018-12-19T02:04:39.885Z,914.09
2018-12-19T02:05:39.858Z,914.11
2018-12-19T02:06:39.844Z,914.11
2018-12-19T02:07:39.779Z,914.12
2018-12-19T02:08:39.743Z,914.11
2018-12-19T02:09:39.722Z,914.12
2018-12-19T02:10:39.675Z,914.11
2018-12-19T02:11:39.974Z,914.13
2018-12-19T02:12:39.651Z,914.08
2018-12-19T02:13:39.603Z,914.13
2018-12-19T02:14:39.566Z,914.17
2018-12-19T02:15:39.522Z,914.18
2018-12-19T02:16:39.494Z,914.16
2018-12-19T02:17:39.476Z,914.16
2018-12-19T02:18:39.434Z,914.17
2018-12-19T02:19:39.393Z,914.15
2018-12-19T02:20:39.364Z,914.14
2018-12-19T02:21:39.321Z,914.13
2018-12-19T02:22:39.290Z,914.13
2018-12-19T02:23:39.470Z,914.13
2018-12-19T02:24:39.236Z,914.11
2018-12-19T02:25:39.226Z,914.08
2018-12-19T02:26:39.179Z,914.11
2018-12-19T02:27:39.123Z,914.09
2018-12-19T02:28:39.389Z,914.09
2018-12-19T02:29:39.057Z,914.12
2018-12-19T02:30:39.063Z,914.13
2018-12-19T02:31:39.009Z,914.13
2018-12-19T02:32:38.974Z,914.14
2018-12-19T02:33:38.960Z,914.15
2018-12-19T02:34:38.932Z,914.11
2018-12-19T02:35:38.892Z,914.13
2018-12-19T02:36:38.866Z,914.14
2018-12-19T02:37:38.840Z,914.12
2018-12-19T02:38:38.781Z,914.08
2018-12-19T02:39:38.771Z,914.05
2018-12-19T02:40:38.753Z,914.05
2018-12-19T02:41:38.691Z,914.06
2018-12-19T02:42:38.657Z,914.08
2018-12-19T02:43:38.623Z,914.07
2018-12-19T02:44:38.794Z,914.05
2018-12-19T02:45:38.583Z,914.05
2018-12-19T02:46:38.521Z,914.05
2018-12-19T02:47:38.545Z,914.09
2018-12-19T02:48:38.496Z,914.03
2018-12-19T02:49:38.436Z,914.03
2018-12-19T02:50:38.452Z,913.98
2018-12-19T02:51:38.380Z,913.99
2018-12-19T02:52:38.325Z,913.99
2018-12-19T02:53:38.303Z,913.97
2018-12-19T02:54:38.365Z,913.95
2018-12-19T02:55:38.229Z,913.93
2018-12-19T02:56:38.188Z,913.88
2018-12-19T02:57:38.154Z,913.88
2018-12-19T02:58:38.133Z,913.89
2018-12-19T02:59:38.108Z,913.88
2018-12-19T03:00:38.092Z,913.86
2018-12-19T03:01:38.059Z,913.87
2018-12-19T03:02:38.004Z,913.89
2018-12-19T03:03:37.965Z,913.85
2018-12-19T03:04:37.918Z,913.84
2018-12-19T03:05:37.881Z,913.84
2018-12-19T03:06:37.864Z,913.82
2018-12-19T03:07:37.841Z,913.81
2018-12-19T03:08:37.801Z,913.80
2018-12-19T03:09:42.885Z,913.79
2018-12-19T03:10:37.751Z,913.79
2018-12-19T03:11:37.748Z,913.79
2018-12-19T03:12:37.709Z,913.83
2018-12-19T03:13:37.658Z,913.79
2018-12-19T03:14:37.609Z,913.76
2018-12-19T03:15:37.587Z,913.76
2018-12-19T03:16:37.560Z,913.76
2018-12-19T03:17:37.665Z,913.80
2018-12-19T03:18:37.472Z,913.78
2018-12-19T03:19:37.445Z,913.78
2018-12-19T03:20:37.399Z,913.76
2018-12-19T03:21:37.365Z,913.78
2018-12-19T03:23:37.307Z,913.73
2018-12-19T03:24:37.273Z,913.73
2018-12-19T03:25:37.228Z,913.73
2018-12-19T03:26:37.197Z,913.73
2018-12-19T03:27:37.173Z,913.72
2018-12-19T03:28:37.151Z,913.71
2018-12-19T03:29:37.101Z,913.72
2018-12-19T03:30:37.086Z,913.68
2018-12-19T03:31:37.047Z,913.73
2018-12-19T03:32:37.015Z,913.70
2018-12-19T03:33:36.990Z,913.70
2018-12-19T03:34:36.941Z,913.71
2018-12-19T03:35:36.896Z,913.70
2018-12-19T03:36:36.865Z,913.69
2018-12-19T03:37:36.845Z,913.72
2018-12-19T03:38:36.917Z,913.67
2018-12-19T03:39:36.786Z,913.66
2018-12-19T03:40:36.752Z,913.66
2018-12-19T03:41:36.706Z,913.60
2018-12-19T03:42:36.678Z,913.62
2018-12-19T03:43:36.653Z,913.61
2018-12-19T03:44:36.618Z,913.58
2018-12-19T03:47:23.443Z,913.59
2018-12-19T03:48:23.197Z,913.55
2018-12-19T03:49:23.488Z,913.54
2018-12-19T03:50:23.139Z,913.56
2018-12-19T03:51:23.114Z,913.56
2018-12-19T03:52:23.097Z,913.54
2018-12-19T03:53:23.060Z,913.53
2018-12-19T03:54:23.279Z,913.58
2018-12-19T03:55:22.992Z,913.50
2018-12-19T03:56:22.932Z,913.51
2018-12-19T03:57:22.925Z,913.52
2018-12-19T03:58:22.885Z,913.54
2018-12-19T03:59:23.051Z,913.49
2018-12-19T04:00:22.818Z,913.50
2018-12-19T04:01:22.785Z,913.52
2018-12-19T04:02:22.826Z,913.53
2018-12-19T04:03:22.715Z,913.47
2018-12-19T04:04:22.919Z,913.48
2018-12-19T04:05:22.657Z,913.47
2018-12-19T04:06:22.602Z,913.50
2018-12-19T04:07:22.584Z,913.48
2018-12-19T04:08:22.561Z,913.43
2018-12-19T04:09:22.534Z,913.43
2018-12-19T04:11:22.479Z,913.46
2018-12-19T04:12:22.426Z,913.43
2018-12-19T04:13:22.383Z,913.44
2018-12-19T04:14:22.374Z,913.41
2018-12-19T04:15:22.324Z,913.40
2018-12-19T04:16:22.302Z,913.39
2018-12-19T04:17:22.257Z,913.35
2018-12-19T04:18:22.233Z,913.38
2018-12-19T04:19:22.185Z,913.40
2018-12-19T04:20:22.157Z,913.35
2018-12-19T04:21:22.130Z,913.36
2018-12-19T04:22:22.123Z,913.39
2018-12-19T04:23:22.075Z,913.37
2018-12-19T04:24:22.030Z,913.36
2018-12-19T04:25:21.991Z,913.35
2018-12-19T04:26:21.957Z,913.34
2018-12-19T04:27:21.925Z,913.28
2018-12-19T04:28:21.904Z,913.28
2018-12-19T04:29:21.888Z,913.27
2018-12-19T04:31:21.988Z,913.21
2018-12-19T04:32:21.766Z,913.27
2018-12-19T04:33:21.737Z,913.24
2018-12-19T04:34:21.703Z,913.23
2018-12-19T04:35:21.654Z,913.26
2018-12-19T04:36:21.635Z,913.25
2018-12-19T04:37:21.605Z,913.27
2018-12-19T04:38:21.618Z,913.25
2018-12-19T04:39:21.533Z,913.32
2018-12-19T04:40:21.503Z,913.28
2018-12-19T04:41:21.524Z,913.30
2018-12-19T04:42:21.437Z,913.31
2018-12-19T04:43:21.413Z,913.30
2018-12-19T04:44:21.365Z,913.32
2018-12-19T04:45:21.352Z,913.33
2018-12-19T04:46:21.310Z,913.31
2018-12-19T04:47:21.275Z,913.33
2018-12-19T04:48:21.228Z,913.34
2018-12-19T04:49:21.210Z,913.29
2018-12-19T04:50:21.167Z,913.28
2018-12-19T04:51:21.152Z,913.31
2018-12-19T04:52:21.111Z,913.29
2018-12-19T04:53:21.074Z,913.28
2018-12-19T04:54:21.136Z,913.28
2018-12-19T04:55:21.015Z,913.26
2018-12-19T04:56:20.978Z,913.28
2018-12-19T04:57:20.943Z,913.26
2018-12-19T04:58:20.906Z,913.25
2018-12-19T04:59:20.864Z,913.26
2018-12-19T05:00:20.848Z,913.23
2018-12-19T05:01:20.819Z,913.25
2018-12-19T05:02:20.770Z,913.26
2018-12-19T05:03:20.889Z,913.20
2018-12-19T05:04:20.709Z,913.21
2018-12-19T05:05:20.686Z,913.17
2018-12-19T05:06:20.636Z,913.19
2018-12-19T05:07:20.605Z,913.17
2018-12-19T05:08:20.585Z,913.16
2018-12-19T05:09:20.545Z,913.17
2018-12-19T05:10:20.507Z,913.14
2018-12-19T05:11:20.488Z,913.14
2018-12-19T05:12:20.432Z,913.13
2018-12-19T05:13:20.407Z,913.12
2018-12-19T05:14:20.370Z,913.13
2018-12-19T05:15:20.343Z,913.11
2018-12-19T05:16:20.325Z,913.12
2018-12-19T05:17:20.294Z,913.15
2018-12-19T05:18:20.253Z,913.14
2018-12-19T05:19:20.260Z,913.12
2018-12-19T05:20:20.177Z,913.13
2018-12-19T05:21:20.138Z,913.08
2018-12-19T05:22:20.117Z,913.10
2018-12-19T05:23:20.082Z,913.06
2018-12-19T05:24:20.064Z,913.06
2018-12-19T05:25:20.020Z,913.09
2018-12-19T05:26:20.018Z,913.07
2018-12-19T05:27:19.942Z,913.07
2018-12-19T05:28:19.915Z,913.10
2018-12-19T05:29:19.871Z,913.07
2018-12-19T05:30:19.847Z,913.08
2018-12-19T05:31:19.818Z,913.09
2018-12-19T05:32:19.791Z,913.14
2018-12-19T05:33:19.737Z,913.13
2018-12-19T05:34:19.713Z,913.13
2018-12-19T05:35:19.817Z,913.14
2018-12-19T05:36:19.652Z,913.16
2018-12-19T05:37:19.619Z,913.11
2018-12-19T05:38:19.583Z,913.14
2018-12-19T05:39:19.548Z,913.13
2018-12-19T05:40:19.502Z,913.09
2018-12-19T05:41:19.773Z,913.05
2018-12-19T05:42:19.436Z,913.08
2018-12-19T05:43:19.416Z,913.07
2018-12-19T05:44:19.377Z,913.09
2018-12-19T05:45:19.339Z,913.09
2018-12-19T05:46:19.299Z,913.07
2018-12-19T05:47:19.568Z,913.11
2018-12-19T05:48:19.239Z,913.12
2018-12-19T05:49:19.250Z,913.12
2018-12-19T05:50:19.198Z,913.11
2018-12-19T05:51:19.165Z,913.14
2018-12-19T05:52:19.112Z,913.17
2018-12-19T05:53:19.079Z,913.18
2018-12-19T05:54:19.036Z,913.15
2018-12-19T05:55:19.031Z,913.14
2018-12-19T05:56:18.989Z,913.12
2018-12-19T05:57:18.934Z,913.09
2018-12-19T05:58:18.917Z,913.09
2018-12-19T05:59:18.892Z,913.10
2018-12-19T06:00:18.847Z,913.10
2018-12-19T06:01:18.810Z,913.05
2018-12-19T06:02:18.775Z,913.10
2018-12-19T06:03:18.941Z,913.11
2018-12-19T06:04:18.716Z,913.16
2018-12-19T06:05:18.672Z,913.16
2018-12-19T06:06:18.658Z,913.16
2018-12-19T06:07:18.622Z,913.16
2018-12-19T06:08:18.635Z,913.17
2018-12-19T06:09:18.538Z,913.15
2018-12-19T06:10:18.512Z,913.18
2018-12-19T06:11:18.470Z,913.16
2018-12-19T06:12:18.450Z,913.12
2018-12-19T06:13:18.403Z,913.11
2018-12-19T06:14:18.386Z,913.07
2018-12-19T06:15:18.354Z,913.09
2018-12-19T06:16:18.322Z,913.07
2018-12-19T06:17:18.282Z,913.07
2018-12-19T06:18:18.235Z,913.07
2018-12-19T06:19:18.209Z,913.08
2018-12-19T06:20:18.169Z,913.07
2018-12-19T06:21:18.144Z,913.12
2018-12-19T06:22:18.116Z,913.09
2018-12-19T06:23:18.067Z,913.09
2018-12-19T06:24:18.049Z,913.08
2018-12-19T06:25:17.996Z,913.07
2018-12-19T06:26:17.976Z,913.06
2018-12-19T06:27:17.936Z,913.04
2018-12-19T06:28:17.906Z,913.02
2018-12-19T06:29:17.888Z,913.05
2018-12-19T06:30:17.858Z,913.01
2018-12-19T06:31:17.853Z,913.03
2018-12-19T06:32:17.765Z,913.06
2018-12-19T06:33:17.744Z,913.06
2018-12-19T06:34:17.710Z,913.05
2018-12-19T06:35:17.681Z,913.11
2018-12-19T06:36:17.630Z,913.12
2018-12-19T06:37:17.613Z,913.12
2018-12-19T06:38:17.574Z,913.12
2018-12-19T06:39:17.524Z,913.10
2018-12-19T06:40:17.508Z,913.09
2018-12-19T06:41:17.463Z,913.10
2018-12-19T06:42:17.428Z,913.05
2018-12-19T06:43:17.406Z,913.09
2018-12-19T06:44:17.360Z,913.10
2018-12-19T06:45:17.330Z,913.06
2018-12-19T06:46:17.304Z,913.11
2018-12-19T06:47:17.267Z,913.12
2018-12-19T06:48:17.254Z,913.13
2018-12-19T06:49:17.200Z,913.16
2018-12-19T06:50:17.165Z,913.17
2018-12-19T06:51:17.122Z,913.18
2018-12-19T06:52:17.099Z,913.13
2018-12-19T06:53:17.070Z,913.19
2018-12-19T06:54:17.027Z,913.17
2018-12-19T06:55:17.314Z,913.15
2018-12-19T06:56:18.393Z,913.17
2018-12-19T06:57:51.541Z,913.14
2018-12-19T06:58:16.901Z,913.13
2018-12-19T06:59:16.868Z,913.14
2018-12-19T07:01:16.808Z,913.13
2018-12-19T07:02:16.763Z,913.17
2018-12-19T07:03:16.735Z,913.17
2018-12-19T07:04:16.699Z,913.18
2018-12-19T07:05:16.666Z,913.17
2018-12-19T07:06:16.626Z,913.17
2018-12-19T07:07:16.585Z,913.16
2018-12-19T07:08:16.543Z,913.14
2018-12-19T07:09:16.537Z,913.13
2018-12-19T07:10:16.519Z,913.10
2018-12-19T07:11:16.463Z,913.13
2018-12-19T07:12:16.585Z,913.09
2018-12-19T07:13:16.401Z,913.11
2018-12-19T07:14:16.344Z,913.13
2018-12-19T07:15:16.341Z,913.10
2018-12-19T07:16:16.280Z,913.15
2018-12-19T07:17:16.418Z,913.20
2018-12-19T07:18:16.325Z,913.20
2018-12-19T07:19:16.196Z,913.20
2018-12-19T07:20:16.139Z,913.20
2018-12-19T07:21:16.125Z,913.20
2018-12-19T07:22:16.085Z,913.20
2018-12-19T07:23:16.211Z,913.23
2018-12-19T07:24:16.022Z,913.23
2018-12-19T07:25:15.990Z,913.21
2018-12-19T07:26:16.439Z,913.21
2018-12-19T07:27:15.930Z,913.21
2018-12-19T07:28:15.877Z,913.22
2018-12-19T07:29:15.853Z,913.25
2018-12-19T07:30:15.807Z,913.29
2018-12-19T07:31:15.772Z,913.29
2018-12-19T07:32:16.048Z,913.33
2018-12-19T07:33:15.721Z,913.32
2018-12-19T07:34:15.707Z,913.32
2018-12-19T07:35:15.634Z,913.36
2018-12-19T07:36:15.606Z,913.35
2018-12-19T07:37:15.590Z,913.31
2018-12-19T07:38:15.543Z,913.32
2018-12-19T07:39:15.516Z,913.34
2018-12-19T07:40:15.492Z,913.33
2018-12-19T07:41:15.454Z,913.33
2018-12-19T07:42:15.477Z,913.35
2018-12-19T07:43:15.381Z,913.34
2018-12-19T07:44:15.349Z,913.35
2018-12-19T07:45:15.318Z,913.36
2018-12-19T07:46:19.840Z,913.31
2018-12-19T07:47:15.234Z,913.30
2018-12-19T07:48:15.214Z,913.33
2018-12-19T07:49:15.182Z,913.34
2018-12-19T07:50:15.140Z,913.33
2018-12-19T07:51:15.102Z,913.38
2018-12-19T07:52:15.060Z,913.38
2018-12-19T07:53:15.040Z,913.39
2018-12-19T07:54:14.995Z,913.42
2018-12-19T07:55:14.965Z,913.41
2018-12-19T07:56:14.946Z,913.41
2018-12-19T07:57:14.893Z,913.42
2018-12-19T07:58:14.852Z,913.47
2018-12-19T07:59:15.015Z,913.48
2018-12-19T08:00:14.803Z,913.50
2018-12-19T08:01:14.758Z,913.52
2018-12-19T08:02:14.733Z,913.54
2018-12-19T08:03:14.703Z,913.56
2018-12-19T08:04:14.651Z,913.55
2018-12-19T08:05:14.640Z,913.55
2018-12-19T08:06:14.581Z,913.56
2018-12-19T08:07:14.558Z,913.58
2018-12-19T08:08:14.528Z,913.59
2018-12-19T08:09:14.499Z,913.60
2018-12-19T08:10:14.482Z,913.57
2018-12-19T08:11:14.419Z,913.55
2018-12-19T08:12:14.397Z,913.60
2018-12-19T08:13:14.360Z,913.58
2018-12-19T08:14:14.319Z,913.64
2018-12-19T08:15:14.329Z,913.63
2018-12-19T08:16:14.265Z,913.66
2018-12-19T08:17:14.234Z,913.65
2018-12-19T08:18:14.191Z,913.70
2018-12-19T08:19:14.155Z,913.67
2018-12-19T08:20:14.134Z,913.69
2018-12-19T08:21:14.104Z,913.67
2018-12-19T08:22:14.042Z,913.67
2018-12-19T08:23:14.011Z,913.66
2018-12-19T08:24:13.987Z,913.66
2018-12-19T08:25:13.956Z,913.66
2018-12-19T08:26:13.926Z,913.66
2018-12-19T08:27:13.871Z,913.68
2018-12-19T08:28:13.856Z,913.68
2018-12-19T08:29:13.800Z,913.68
2018-12-19T08:30:13.782Z,913.69
2018-12-19T08:31:13.939Z,913.66
2018-12-19T08:32:13.706Z,913.68
2018-12-19T08:33:13.692Z,913.68
2018-12-19T08:34:13.651Z,913.75
2018-12-19T08:35:13.599Z,913.71
2018-12-19T08:36:13.573Z,913.72
2018-12-19T08:37:13.546Z,913.76
2018-12-19T08:38:13.506Z,913.75
2018-12-19T08:39:13.468Z,913.79
2018-12-19T08:40:13.430Z,913.79
2018-12-19T08:41:13.390Z,913.77
2018-12-19T08:42:13.365Z,913.74
2018-12-19T08:43:13.348Z,913.77
2018-12-19T08:44:13.308Z,913.81
2018-12-19T08:45:13.273Z,913.85
2018-12-19T08:46:14.699Z,913.83
2018-12-19T08:47:13.652Z,913.84
2018-12-19T08:48:13.164Z,913.88
2018-12-19T08:49:13.130Z,913.90
2018-12-19T08:50:13.107Z,913.86
2018-12-19T08:51:13.055Z,913.88
2018-12-19T08:52:13.182Z,913.92
2018-12-19T08:53:12.989Z,913.87
2018-12-19T08:54:12.972Z,913.87
2018-12-19T08:55:12.921Z,913.85
2018-12-19T08:56:12.904Z,913.90
2018-12-19T08:57:12.920Z,913.92
2018-12-19T08:58:12.898Z,913.94
2018-12-19T08:59:12.812Z,913.92
2018-12-19T09:00:12.748Z,913.99
2018-12-19T09:01:12.716Z,913.97
2018-12-19T09:02:12.696Z,913.96
2018-12-19T09:03:12.644Z,913.99
2018-12-19T09:04:12.633Z,913.99
2018-12-19T09:05:12.578Z,913.97
2018-12-19T09:06:12.539Z,913.92
2018-12-19T09:07:12.519Z,913.97
2018-12-19T09:08:12.502Z,914.01
2018-12-19T09:09:12.457Z,914.03
2018-12-19T09:10:12.416Z,914.07
2018-12-19T09:11:12.396Z,914.06
2018-12-19T09:12:12.339Z,914.13
2018-12-19T09:13:12.320Z,914.13
2018-12-19T09:14:12.278Z,914.17
2018-12-19T09:15:12.255Z,914.15
2018-12-19T09:16:12.212Z,914.15
2018-12-19T09:17:12.165Z,914.20
2018-12-19T09:18:12.151Z,914.18
2018-12-19T09:19:12.110Z,914.22
2018-12-19T09:20:12.077Z,914.24
2018-12-19T09:21:12.044Z,914.26
2018-12-19T09:22:12.054Z,914.27
2018-12-19T09:23:11.984Z,914.28
2018-12-19T09:24:12.128Z,914.30
2018-12-19T09:25:11.898Z,914.29
2018-12-19T09:26:11.859Z,914.27
2018-12-19T09:27:11.840Z,914.28
2018-12-19T09:28:11.796Z,914.27
2018-12-19T09:29:11.766Z,914.28
2018-12-19T09:30:11.733Z,914.29
2018-12-19T09:31:11.705Z,914.30
2018-12-19T09:32:11.671Z,914.32
2018-12-19T09:33:11.631Z,914.29
2018-12-19T09:34:11.595Z,914.34
2018-12-19T09:35:11.645Z,914.35
2018-12-19T09:36:11.532Z,914.33
2018-12-19T09:37:11.504Z,914.37
2018-12-19T09:38:11.477Z,914.39
2018-12-19T09:39:11.435Z,914.39
2018-12-19T09:40:11.399Z,914.42
2018-12-19T09:41:12.457Z,914.43
2018-12-19T09:42:11.346Z,914.44
2018-12-19T09:43:11.302Z,914.44
2018-12-19T09:44:11.249Z,914.40
2018-12-19T09:45:11.377Z,914.41
2018-12-19T09:46:11.199Z,914.44
2018-12-19T09:47:11.176Z,914.42
2018-12-19T09:48:11.124Z,914.43
2018-12-19T09:49:12.461Z,914.46
2018-12-19T09:50:11.265Z,914.50
2018-12-19T09:51:11.026Z,914.49
2018-12-19T09:52:11.000Z,914.52
2018-12-19T09:53:10.959Z,914.53
2018-12-19T09:54:10.919Z,914.54
2018-12-19T09:55:11.036Z,914.52
2018-12-19T09:56:10.858Z,914.54
2018-12-19T09:57:10.847Z,914.57
2018-12-19T09:58:10.798Z,914.55
2018-12-19T09:59:10.768Z,914.55
2018-12-19T10:00:10.715Z,914.58
2018-12-19T10:01:11.041Z,914.55
2018-12-19T10:02:10.645Z,914.52
2018-12-19T10:03:10.618Z,914.56
2018-12-19T10:04:10.582Z,914.50
2018-12-19T10:05:10.665Z,914.49
2018-12-19T10:06:10.527Z,914.53
2018-12-19T10:07:10.937Z,914.52
2018-12-19T10:08:10.464Z,914.51
2018-12-19T10:09:14.874Z,914.49
2018-12-19T10:10:10.398Z,914.52
2018-12-19T10:11:10.370Z,914.53
2018-12-19T10:12:10.328Z,914.50
2018-12-19T10:13:10.451Z,914.51
2018-12-19T10:14:10.298Z,914.51
2018-12-19T10:15:10.227Z,914.54
2018-12-19T10:16:10.228Z,914.51
2018-12-19T10:17:10.169Z,914.54
2018-12-19T10:18:10.336Z,914.55
2018-12-19T10:19:10.102Z,914.57
2018-12-19T10:20:10.109Z,914.55
2018-12-19T10:21:10.055Z,914.60
2018-12-19T10:22:09.994Z,914.58
2018-12-19T10:23:10.036Z,914.58
2018-12-19T10:24:09.931Z,914.57
2018-12-19T10:25:09.917Z,914.54
2018-12-19T10:26:09.857Z,914.58
2018-12-19T10:27:09.852Z,914.56
2018-12-19T10:28:09.792Z,914.53
2018-12-19T10:29:09.921Z,914.53
2018-12-19T10:30:09.767Z,914.52
2018-12-19T10:31:09.709Z,914.56
2018-12-19T10:32:09.892Z,914.57
2018-12-19T10:33:09.835Z,914.59
2018-12-19T10:34:09.603Z,914.54
2018-12-19T10:35:09.572Z,914.59
2018-12-19T10:36:09.648Z,914.61
2018-12-19T10:37:09.505Z,914.60
2018-12-19T10:38:09.459Z,914.57
2018-12-19T10:39:09.436Z,914.56
2018-12-19T10:40:09.595Z,914.56
2018-12-19T10:41:09.367Z,914.60
2018-12-19T10:42:09.381Z,914.63
2018-12-19T10:43:09.306Z,914.62
2018-12-19T10:44:09.297Z,914.61
2018-12-19T10:45:09.299Z,914.60
2018-12-19T10:46:09.230Z,914.63
2018-12-19T10:47:09.200Z,914.62
2018-12-19T10:48:09.162Z,914.61
2018-12-19T10:49:09.127Z,914.61
2018-12-19T10:50:09.249Z,914.64
2018-12-19T10:51:09.046Z,914.67
2018-12-19T10:52:09.045Z,914.69
2018-12-19T10:53:08.987Z,914.68
2018-12-19T10:54:09.015Z,914.70
2018-12-19T10:55:08.958Z,914.68
2018-12-19T10:56:08.901Z,914.69
2018-12-19T10:57:08.856Z,914.69
2018-12-19T10:58:08.825Z,914.71
2018-12-19T10:59:08.880Z,914.69
2018-12-19T11:00:08.880Z,914.65
2018-12-19T11:01:08.735Z,914.67
2018-12-19T11:02:08.711Z,914.69
2018-12-19T11:03:08.678Z,914.70
2018-12-19T11:04:09.133Z,914.66
2018-12-19T11:05:08.606Z,914.70
2018-12-19T11:06:08.601Z,914.67
2018-12-19T11:07:08.540Z,914.72
2018-12-19T11:08:08.517Z,914.70
2018-12-19T11:09:08.483Z,914.73
2018-12-19T11:10:08.497Z,914.75
2018-12-19T11:11:08.435Z,914.77
2018-12-19T11:12:08.415Z,914.81
2018-12-19T11:13:08.397Z,914.78
2018-12-19T11:14:08.509Z,914.75
2018-12-19T11:15:08.314Z,914.77
2018-12-19T11:16:08.303Z,914.73
2018-12-19T11:17:08.225Z,914.70
2018-12-19T11:18:08.210Z,914.70
2018-12-19T11:19:08.160Z,914.73
2018-12-19T11:20:08.145Z,914.70
2018-12-19T11:21:08.304Z,914.67
2018-12-19T11:22:08.075Z,914.68
2018-12-19T11:23:08.044Z,914.66
2018-12-19T11:24:08.004Z,914.67
2018-12-19T11:25:07.979Z,914.65
2018-12-19T11:26:08.254Z,914.65
2018-12-19T11:27:07.920Z,914.67
2018-12-19T11:28:07.900Z,914.66
2018-12-19T11:29:07.861Z,914.64
2018-12-19T11:30:07.838Z,914.66
2018-12-19T11:31:07.798Z,914.64
2018-12-19T11:32:07.929Z,914.66
2018-12-19T11:33:07.735Z,914.63
2018-12-19T11:34:07.706Z,914.64
2018-12-19T11:35:07.691Z,914.61
2018-12-19T11:36:07.690Z,914.61
2018-12-19T11:37:07.911Z,914.60
2018-12-19T11:38:07.593Z,914.61
2018-12-19T11:39:07.589Z,914.59
2018-12-19T11:40:07.509Z,914.59
2018-12-19T11:41:07.497Z,914.62
2018-12-19T11:42:07.701Z,914.61
2018-12-19T11:43:07.432Z,914.62
2018-12-19T11:44:07.400Z,914.61
2018-12-19T11:45:07.362Z,914.66
2018-12-19T11:46:07.350Z,914.67
2018-12-19T11:47:07.381Z,914.71
2018-12-19T11:48:07.478Z,914.70
2018-12-19T11:49:07.258Z,914.70
2018-12-19T11:50:07.254Z,914.70
2018-12-19T11:51:07.197Z,914.71
2018-12-19T11:52:07.144Z,914.68
2018-12-19T11:53:07.113Z,914.70
2018-12-19T11:54:07.107Z,914.68
2018-12-19T11:55:07.076Z,914.69
2018-12-19T11:56:07.039Z,914.69
2018-12-19T11:57:07.026Z,914.70
2018-12-19T11:58:06.967Z,914.67
2018-12-19T11:59:06.969Z,914.68
2018-12-19T12:00:06.920Z,914.72
2018-12-19T12:01:06.878Z,914.72
2018-12-19T12:02:06.879Z,914.74
2018-12-19T12:03:06.821Z,914.77
2018-12-19T12:04:06.811Z,914.72
2018-12-19T12:05:06.772Z,914.75
2018-12-19T12:06:06.747Z,914.77
2018-12-19T12:07:06.699Z,914.73
2018-12-19T12:08:06.686Z,914.73
2018-12-19T12:09:07.057Z,914.73
2018-12-19T12:10:06.956Z,914.75
2018-12-19T12:11:06.581Z,914.73
2018-12-19T12:12:06.550Z,914.74
2018-12-19T12:13:06.526Z,914.75
2018-12-19T12:14:06.573Z,914.77
2018-12-19T12:15:06.472Z,914.78
2018-12-19T12:16:06.454Z,914.75
2018-12-19T12:17:06.411Z,914.74
2018-12-19T12:18:06.381Z,914.78
2018-12-19T12:19:06.356Z,914.75
2018-12-19T12:20:06.355Z,914.76
2018-12-19T12:21:06.303Z,914.73
2018-12-19T12:22:06.264Z,914.74
2018-12-19T12:23:06.224Z,914.76
2018-12-19T12:24:06.212Z,914.74
2018-12-19T12:25:06.184Z,914.76
2018-12-19T12:26:06.447Z,914.80
2018-12-19T12:27:06.116Z,914.80
2018-12-19T12:28:06.129Z,914.82
2018-12-19T12:29:06.096Z,914.81
2018-12-19T12:30:06.031Z,914.79
2018-12-19T12:31:05.999Z,914.80
2018-12-19T12:32:06.046Z,914.76
2018-12-19T12:33:05.936Z,914.77
2018-12-19T12:34:05.927Z,914.79
2018-12-19T12:35:05.875Z,914.80
2018-12-19T12:36:05.847Z,914.80